Hansa Australia — CQCG — position and weather

sailwx.info

Track history (hours):
 
Tides and Currents Weather Stations Pressure Air Temp Water Temp Dewpoint Dewpoint Depression Visibility Wind Speed Wind Dir Waves Ship Positions

Hansa Australia

Last reported at 2017-Nov-19 16:51 UTC. Time now 2017-Nov-20 01:54 UTC.
Position N 35°56' W 005°31'.

Length 240 m; draft 12.1 m.

Type: Ship (hazmat cat A). MMSI: 255805757.

Date/timePositionNaut miles runAvg speedWind from/ knotsBaromVisibWave heightAir tempDewpointWater temp
2017-Nov-19 16:51N 35°56' W 005°31'411.9
2017-Nov-19 16:31N 35°59' W 005°27'612.5
2017-Nov-19 16:00N 36°01' W 005°20'612.6
2017-Nov-19 15:31N 36°03' W 005°13'3 0.1
2017-Nov-17 20:02N 36°01' W 005°12'016.5
2017-Nov-17 20:00N 36°01' W 005°12'815.3
2017-Nov-17 19:30N 36°04' W 005°21'4 8.9
2017-Nov-17 19:00N 36°07' W 005°25'1 1.6
2017-Nov-17 18:25N 36°08' W 005°25'0 0.0
2017-Nov-17 13:43N 36°08' W 005°25'0 0.0
2017-Nov-17 12:37N 36°08' W 005°25'0 0.0
2017-Nov-17 11:22N 36°08' W 005°25'0 0.0
2017-Nov-17 10:59N 36°08' W 005°25'0 0.0
2017-Nov-17 10:30N 36°08' W 005°25'0 0.0
2017-Nov-17 10:00N 36°08' W 005°25'0 0.0
2017-Nov-17 09:30N 36°08' W 005°25'0 0.0
2017-Nov-17 08:57N 36°08' W 005°25'0 0.0
2017-Nov-17 08:26N 36°08' W 005°25'0 0.0
2017-Nov-17 08:00N 36°08' W 005°25'0 0.0
2017-Nov-17 07:29N 36°08' W 005°25'0 0.0
2017-Nov-17 07:00N 36°08' W 005°25'1 1.7
2017-Nov-17 06:18N 36°07' W 005°24'3 9.7
2017-Nov-17 06:01N 36°05' W 005°23'1 2.9
2017-Nov-17 05:30N 36°03' W 005°24'0 0.9
2017-Nov-17 05:00N 36°03' W 005°24'1 2.8
2017-Nov-17 04:30N 36°01' W 005°24'510.7
2017-Nov-17 04:00N 35°57' W 005°28'216 6.5
2017-Nov-15 18:31N 37°28' W 009°33'112.1
2017-Nov-15 18:25N 37°29' W 009°33'512.1
2017-Nov-15 18:00N 37°34' W 009°32'612.1
2017-Nov-15 17:30N 37°40' W 009°31'612.0
2017-Nov-15 17:00N 37°46' W 009°30'611.9
2017-Nov-15 16:30N 37°52' W 009°30'611.7
2017-Nov-15 16:00N 37°58' W 009°29'611.8
2017-Nov-15 15:30N 38°04' W 009°28'611.5
2017-Nov-15 15:00N 38°09' W 009°28'611.3
2017-Nov-15 14:29N 38°15' W 009°27'511.5
2017-Nov-15 14:00N 38°21' W 009°27'611.6
2017-Nov-15 13:30N 38°27' W 009°27'611.4
2017-Nov-15 13:00N 38°32' W 009°26'510.5
2017-Nov-15 12:30N 38°37' W 009°23'611.3
2017-Nov-15 12:00N 38°41' W 009°18'611.4
2017-Nov-15 11:30N 38°42' W 009°10'0 0.3
2017-Nov-15 10:09N 38°42' W 009°10'0 0.0
2017-Nov-15 09:48N 38°42' W 009°10'0 0.0
2017-Nov-15 09:15N 38°42' W 009°10'0 0.0
2017-Nov-15 09:00N 38°42' W 009°10'0 0.0
2017-Nov-15 07:18N 38°42' W 009°10'0 0.0
2017-Nov-15 06:48N 38°42' W 009°10'0 0.0
2017-Nov-15 04:33N 38°42' W 009°10'0 0.0
2017-Nov-15 04:24N 38°42' W 009°10'0 0.0
2017-Nov-15 03:48N 38°42' W 009°10'0 0.0
2017-Nov-15 03:30N 38°42' W 009°10'0 0.0
2017-Nov-15 03:00N 38°42' W 009°10'0 0.0
2017-Nov-15 01:54N 38°42' W 009°10'0 0.0
2017-Nov-15 01:27N 38°42' W 009°10'0 0.0
2017-Nov-14 21:54N 38°42' W 009°10'0 0.0
2017-Nov-14 20:39N 38°42' W 009°10'0 0.0
2017-Nov-14 19:30N 38°42' W 009°10'0 0.0
2017-Nov-14 17:00N 38°42' W 009°10'0 0.1
2017-Nov-14 16:27N 38°42' W 009°10'2 3.3
2017-Nov-14 16:00N 38°41' W 009°12'511.1
2017-Nov-14 15:30N 38°40' W 009°19'511.0
2017-Nov-14 15:00N 38°37' W 009°25'612.4
2017-Nov-14 14:30N 38°37' W 009°33'713.3
2017-Nov-14 14:00N 38°37' W 009°41'713.6
2017-Nov-14 13:30N 38°44' W 009°43'714.1
2017-Nov-14 13:00N 38°51' W 009°44'713.8
2017-Nov-14 12:30N 38°58' W 009°44'713.7
2017-Nov-14 12:00N 39°05' W 009°45'713.6
2017-Nov-14 11:30N 39°11' W 009°46'713.4
2017-Nov-14 10:59N 39°18' W 009°46'713.9
2017-Nov-14 10:30N 39°25' W 009°47'59013.2
2017-Nov-12 13:54N 48°50' W 005°51'1113.5
2017-Nov-12 13:02N 48°57' W 005°37'4313.1
2017-Nov-12 09:45N 49°20' W 004°41'5616.5
2017-Nov-12 06:19N 49°48' W 003°26'514.5
2017-Nov-12 06:00N 49°51' W 003°20'714.3
2017-Nov-12 05:30N 49°55' W 003°11'713.9
2017-Nov-12 05:00N 49°58' W 003°01'612.6
2017-Nov-12 04:30N 49°60' W 002°52'612.1
2017-Nov-12 04:00N 50°01' W 002°43'611.6
2017-Nov-12 03:30N 50°03' W 002°35'1611.1
2017-Nov-12 02:02N 50°08' W 002°10'010.4
2017-Nov-12 02:00N 50°08' W 002°09'510.6
2017-Nov-12 01:30N 50°09' W 002°01'510.7
2017-Nov-12 01:01N 50°10' W 001°53'510.5
2017-Nov-12 00:30N 50°10' W 001°45'611.1
2017-Nov-12 00:00N 50°07' W 001°38'611.7
2017-Nov-11 23:30N 50°04' W 001°30'613.0
2017-Nov-11 23:00N 50°00' W 001°22'714.7
2017-Nov-11 22:31N 49°56' W 001°12'815.0
2017-Nov-11 22:00N 49°52' W 001°03'815.2
2017-Nov-11 21:31N 49°48' W 000°53'815.2
2017-Nov-11 21:00N 49°44' W 000°43'815.2
2017-Nov-11 20:30N 49°40' W 000°32'714.8
2017-Nov-11 20:00N 49°36' W 000°23'714.6
2017-Nov-11 19:30N 49°33' W 000°13'713.2
2017-Nov-11 19:00N 49°30' W 000°04'612.3
2017-Nov-11 18:30N 49°29' E 000°06'2 4.7
2017-Nov-11 17:59N 49°28' E 000°09'0 0.0
2017-Nov-11 17:29N 49°28' E 000°09'0 0.0
2017-Nov-11 16:59N 49°28' E 000°09'0 0.0
2017-Nov-11 16:29N 49°28' E 000°09'0 0.0
2017-Nov-11 15:59N 49°28' E 000°09'0 0.0
2017-Nov-11 15:29N 49°28' E 000°09'0 0.0
2017-Nov-11 14:59N 49°28' E 000°09'0 0.0
2017-Nov-11 14:29N 49°28' E 000°09'0 0.0
2017-Nov-11 13:59N 49°28' E 000°09'0 0.0
2017-Nov-11 13:29N 49°28' E 000°09'0 0.0
2017-Nov-11 12:59N 49°28' E 000°09'0 0.0
2017-Nov-11 12:29N 49°28' E 000°09'0 0.0
2017-Nov-11 11:59N 49°28' E 000°09'0 0.0
2017-Nov-11 11:29N 49°28' E 000°09'0 0.0
2017-Nov-11 10:59N 49°28' E 000°09'0 0.0
2017-Nov-11 10:29N 49°28' E 000°09'0 0.0
2017-Nov-11 09:59N 49°28' E 000°09'0 0.0
2017-Nov-11 09:29N 49°28' E 000°09'0 0.0
2017-Nov-11 08:59N 49°28' E 000°09'0 0.0
2017-Nov-11 08:29N 49°28' E 000°09'0 0.0
2017-Nov-11 07:59N 49°28' E 000°09'0 0.0
2017-Nov-11 07:31N 49°28' E 000°09'0 0.0
2017-Nov-11 07:00N 49°28' E 000°09'0 0.0
2017-Nov-11 06:31N 49°28' E 000°09'0 0.0
2017-Nov-11 06:01N 49°28' E 000°09'0 0.4
2017-Nov-11 05:31N 49°28' E 000°09'4 7.2
2017-Nov-11 05:00N 49°29' E 000°04'714.0
2017-Nov-11 04:30N 49°31' W 000°07'510.0
2017-Nov-11 04:00N 49°33' W 000°14'510.0
2017-Nov-11 03:31N 49°35' W 000°21'510.9
2017-Nov-11 03:01N 49°39' W 000°26'510.6
2017-Nov-11 02:30N 49°44' W 000°31'714.8
2017-Nov-11 02:00N 49°50' W 000°37'816.8
2017-Nov-11 01:30N 49°57' W 000°42'815.9
2017-Nov-11 01:00N 50°05' W 000°43'815.9
2017-Nov-11 00:30N 50°13' W 000°42'1514.2
2017-Nov-10 23:27N 50°24' W 000°25'815.9
2017-Nov-10 22:58N 50°27' W 000°14'815.8
2017-Nov-10 22:30N 50°28' W 000°03'816.3
2017-Nov-10 22:00N 50°30' E 000°09'816.6
2017-Nov-10 21:30N 50°33' E 000°22'816.8
2017-Nov-10 21:00N 50°35' E 000°35'917.1
2017-Nov-10 20:30N 50°40' E 000°46'816.9
2017-Nov-10 20:00N 50°44' E 000°57'816.8
2017-Nov-10 19:30N 50°49' E 001°08'1016.8
2017-Nov-10 18:56N 50°56' E 001°19'717.0
2017-Nov-10 18:30N 51°01' E 001°27'816.0
2017-Nov-10 18:00N 51°07' E 001°36'815.7
2017-Nov-10 17:30N 51°12' E 001°45'816.1
2017-Nov-10 17:00N 51°19' E 001°51'815.4
2017-Nov-10 16:30N 51°25' E 002°00'816.1
2017-Nov-10 16:00N 51°21' E 002°12'815.3
2017-Nov-10 15:30N 51°21' E 002°24'815.9
2017-Nov-10 14:59N 51°23' E 002°37'611.9
2017-Nov-10 14:30N 51°24' E 002°46'612.7
2017-Nov-10 14:00N 51°25' E 002°56'816.4
2017-Nov-10 13:30N 51°24' E 003°09'816.5
2017-Nov-10 13:00N 51°25' E 003°22'815.5
2017-Nov-10 12:30N 51°26' E 003°35'4 7.4
2017-Nov-10 12:00N 51°27' E 003°40'815.0
2017-Nov-10 11:30N 51°21' E 003°48'612.7
2017-Nov-10 11:00N 51°24' E 003°57'3 6.3
2017-Nov-10 10:31N 51°23' E 004°02'612.9
2017-Nov-10 10:01N 51°24' E 004°13'4 8.2
2017-Nov-10 09:31N 51°21' E 004°17'0 0.0
2017-Nov-10 09:01N 51°21' E 004°17'0 0.0
2017-Nov-10 08:31N 51°21' E 004°17'1 1.4
2017-Nov-10 08:00N 51°20' E 004°18'2 3.0
2017-Nov-10 07:30N 51°20' E 004°20'0 0.2
2017-Nov-10 06:59N 51°20' E 004°20'0 0.0
2017-Nov-10 06:29N 51°20' E 004°20'0 0.0
2017-Nov-10 05:59N 51°20' E 004°20'0 0.0
2017-Nov-10 05:29N 51°20' E 004°20'0 0.0
2017-Nov-10 04:59N 51°20' E 004°20'0 0.0
2017-Nov-10 04:29N 51°20' E 004°20'0 0.0
2017-Nov-10 03:56N 51°20' E 004°20'0 0.0
2017-Nov-10 03:29N 51°20' E 004°20'0 0.0
2017-Nov-10 02:59N 51°20' E 004°20'0 0.0
2017-Nov-10 02:29N 51°20' E 004°20'0 0.0
2017-Nov-10 01:59N 51°20' E 004°20'0 0.0
2017-Nov-10 01:29N 51°20' E 004°20'0 0.0
2017-Nov-10 00:59N 51°20' E 004°20'0 0.0
2017-Nov-10 00:29N 51°20' E 004°20'0 0.0
2017-Nov-09 23:59N 51°20' E 004°20'0 0.0
2017-Nov-09 23:29N 51°20' E 004°20'0 0.0
2017-Nov-09 22:59N 51°20' E 004°20'0 0.0
2017-Nov-09 22:29N 51°20' E 004°20'0 0.0
2017-Nov-09 21:53N 51°20' E 004°20'0 0.0
2017-Nov-09 21:29N 51°20' E 004°20'0 0.0
2017-Nov-09 20:59N 51°20' E 004°20'0 0.0
2017-Nov-09 20:29N 51°20' E 004°20'0 0.0
2017-Nov-09 19:59N 51°20' E 004°20'0 0.0
2017-Nov-09 19:29N 51°20' E 004°20'0 0.0
2017-Nov-09 18:56N 51°20' E 004°20'0 0.0
2017-Nov-09 18:23N 51°20' E 004°20'0 0.0
2017-Nov-09 17:59N 51°20' E 004°20'0 0.0
2017-Nov-09 17:29N 51°20' E 004°20'  
Track history (hours):
 
Tides and Currents Weather Stations Pressure Air Temp Water Temp Dewpoint Dewpoint Depression Visibility Wind Speed Wind Dir Waves Ship Positions

Hansa Australia

Last reported at 2017-Nov-19 16:51 UTC. Time now 2017-Nov-20 01:54 UTC.
Position N 35°56' W 005°31'.

Length 240 m; draft 12.1 m.

Type: Ship (hazmat cat A). MMSI: 255805757.

Date/timePositionNaut miles runAvg speedWind from/ knotsBaromVisibWave heightAir tempDewpointWater temp
2017-Nov-19 16:51N 35°56' W 005°31'411.9
2017-Nov-19 16:31N 35°59' W 005°27'612.5
2017-Nov-19 16:00N 36°01' W 005°20'612.6
2017-Nov-19 15:31N 36°03' W 005°13'3 0.1
2017-Nov-17 20:02N 36°01' W 005°12'016.5
2017-Nov-17 20:00N 36°01' W 005°12'815.3
2017-Nov-17 19:30N 36°04' W 005°21'4 8.9
2017-Nov-17 19:00N 36°07' W 005°25'1 1.6
2017-Nov-17 18:25N 36°08' W 005°25'0 0.0
2017-Nov-17 13:43N 36°08' W 005°25'0 0.0
2017-Nov-17 12:37N 36°08' W 005°25'0 0.0
2017-Nov-17 11:22N 36°08' W 005°25'0 0.0
2017-Nov-17 10:59N 36°08' W 005°25'0 0.0
2017-Nov-17 10:30N 36°08' W 005°25'0 0.0
2017-Nov-17 10:00N 36°08' W 005°25'0 0.0
2017-Nov-17 09:30N 36°08' W 005°25'0 0.0
2017-Nov-17 08:57N 36°08' W 005°25'0 0.0
2017-Nov-17 08:26N 36°08' W 005°25'0 0.0
2017-Nov-17 08:00N 36°08' W 005°25'0 0.0
2017-Nov-17 07:29N 36°08' W 005°25'0 0.0
2017-Nov-17 07:00N 36°08' W 005°25'1 1.7
2017-Nov-17 06:18N 36°07' W 005°24'3 9.7
2017-Nov-17 06:01N 36°05' W 005°23'1 2.9
2017-Nov-17 05:30N 36°03' W 005°24'0 0.9
2017-Nov-17 05:00N 36°03' W 005°24'1 2.8
2017-Nov-17 04:30N 36°01' W 005°24'510.7
2017-Nov-17 04:00N 35°57' W 005°28'216 6.5
2017-Nov-15 18:31N 37°28' W 009°33'112.1
2017-Nov-15 18:25N 37°29' W 009°33'512.1
2017-Nov-15 18:00N 37°34' W 009°32'612.1
2017-Nov-15 17:30N 37°40' W 009°31'612.0
2017-Nov-15 17:00N 37°46' W 009°30'611.9
2017-Nov-15 16:30N 37°52' W 009°30'611.7
2017-Nov-15 16:00N 37°58' W 009°29'611.8
2017-Nov-15 15:30N 38°04' W 009°28'611.5
2017-Nov-15 15:00N 38°09' W 009°28'611.3
2017-Nov-15 14:29N 38°15' W 009°27'511.5
2017-Nov-15 14:00N 38°21' W 009°27'611.6
2017-Nov-15 13:30N 38°27' W 009°27'611.4
2017-Nov-15 13:00N 38°32' W 009°26'510.5
2017-Nov-15 12:30N 38°37' W 009°23'611.3
2017-Nov-15 12:00N 38°41' W 009°18'611.4
2017-Nov-15 11:30N 38°42' W 009°10'0 0.3
2017-Nov-15 10:09N 38°42' W 009°10'0 0.0
2017-Nov-15 09:48N 38°42' W 009°10'0 0.0
2017-Nov-15 09:15N 38°42' W 009°10'0 0.0
2017-Nov-15 09:00N 38°42' W 009°10'0 0.0
2017-Nov-15 07:18N 38°42' W 009°10'0 0.0
2017-Nov-15 06:48N 38°42' W 009°10'0 0.0
2017-Nov-15 04:33N 38°42' W 009°10'0 0.0
2017-Nov-15 04:24N 38°42' W 009°10'0 0.0
2017-Nov-15 03:48N 38°42' W 009°10'0 0.0
2017-Nov-15 03:30N 38°42' W 009°10'0 0.0
2017-Nov-15 03:00N 38°42' W 009°10'0 0.0
2017-Nov-15 01:54N 38°42' W 009°10'0 0.0
2017-Nov-15 01:27N 38°42' W 009°10'0 0.0
2017-Nov-14 21:54N 38°42' W 009°10'0 0.0
2017-Nov-14 20:39N 38°42' W 009°10'0 0.0
2017-Nov-14 19:30N 38°42' W 009°10'0 0.0
2017-Nov-14 17:00N 38°42' W 009°10'0 0.1
2017-Nov-14 16:27N 38°42' W 009°10'2 3.3
2017-Nov-14 16:00N 38°41' W 009°12'511.1
2017-Nov-14 15:30N 38°40' W 009°19'511.0
2017-Nov-14 15:00N 38°37' W 009°25'612.4
2017-Nov-14 14:30N 38°37' W 009°33'713.3
2017-Nov-14 14:00N 38°37' W 009°41'713.6
2017-Nov-14 13:30N 38°44' W 009°43'714.1
2017-Nov-14 13:00N 38°51' W 009°44'713.8
2017-Nov-14 12:30N 38°58' W 009°44'713.7
2017-Nov-14 12:00N 39°05' W 009°45'713.6
2017-Nov-14 11:30N 39°11' W 009°46'713.4
2017-Nov-14 10:59N 39°18' W 009°46'713.9
2017-Nov-14 10:30N 39°25' W 009°47'59013.2
2017-Nov-12 13:54N 48°50' W 005°51'1113.5
2017-Nov-12 13:02N 48°57' W 005°37'4313.1
2017-Nov-12 09:45N 49°20' W 004°41'5616.5
2017-Nov-12 06:19N 49°48' W 003°26'514.5
2017-Nov-12 06:00N 49°51' W 003°20'714.3
2017-Nov-12 05:30N 49°55' W 003°11'713.9
2017-Nov-12 05:00N 49°58' W 003°01'612.6
2017-Nov-12 04:30N 49°60' W 002°52'612.1
2017-Nov-12 04:00N 50°01' W 002°43'611.6
2017-Nov-12 03:30N 50°03' W 002°35'1611.1
2017-Nov-12 02:02N 50°08' W 002°10'010.4
2017-Nov-12 02:00N 50°08' W 002°09'510.6
2017-Nov-12 01:30N 50°09' W 002°01'510.7
2017-Nov-12 01:01N 50°10' W 001°53'510.5
2017-Nov-12 00:30N 50°10' W 001°45'611.1
2017-Nov-12 00:00N 50°07' W 001°38'611.7
2017-Nov-11 23:30N 50°04' W 001°30'613.0
2017-Nov-11 23:00N 50°00' W 001°22'714.7
2017-Nov-11 22:31N 49°56' W 001°12'815.0
2017-Nov-11 22:00N 49°52' W 001°03'815.2
2017-Nov-11 21:31N 49°48' W 000°53'815.2
2017-Nov-11 21:00N 49°44' W 000°43'815.2
2017-Nov-11 20:30N 49°40' W 000°32'714.8
2017-Nov-11 20:00N 49°36' W 000°23'714.6
2017-Nov-11 19:30N 49°33' W 000°13'713.2
2017-Nov-11 19:00N 49°30' W 000°04'612.3
2017-Nov-11 18:30N 49°29' E 000°06'2 4.7
2017-Nov-11 17:59N 49°28' E 000°09'0 0.0
2017-Nov-11 17:29N 49°28' E 000°09'0 0.0
2017-Nov-11 16:59N 49°28' E 000°09'0 0.0
2017-Nov-11 16:29N 49°28' E 000°09'0 0.0
2017-Nov-11 15:59N 49°28' E 000°09'0 0.0
2017-Nov-11 15:29N 49°28' E 000°09'0 0.0
2017-Nov-11 14:59N 49°28' E 000°09'0 0.0
2017-Nov-11 14:29N 49°28' E 000°09'0 0.0
2017-Nov-11 13:59N 49°28' E 000°09'0 0.0
2017-Nov-11 13:29N 49°28' E 000°09'0 0.0
2017-Nov-11 12:59N 49°28' E 000°09'0 0.0
2017-Nov-11 12:29N 49°28' E 000°09'0 0.0
2017-Nov-11 11:59N 49°28' E 000°09'0 0.0
2017-Nov-11 11:29N 49°28' E 000°09'0 0.0
2017-Nov-11 10:59N 49°28' E 000°09'0 0.0
2017-Nov-11 10:29N 49°28' E 000°09'0 0.0
2017-Nov-11 09:59N 49°28' E 000°09'0 0.0
2017-Nov-11 09:29N 49°28' E 000°09'0 0.0
2017-Nov-11 08:59N 49°28' E 000°09'0 0.0
2017-Nov-11 08:29N 49°28' E 000°09'0 0.0
2017-Nov-11 07:59N 49°28' E 000°09'0 0.0
2017-Nov-11 07:31N 49°28' E 000°09'0 0.0
2017-Nov-11 07:00N 49°28' E 000°09'0 0.0
2017-Nov-11 06:31N 49°28' E 000°09'0 0.0
2017-Nov-11 06:01N 49°28' E 000°09'0 0.4
2017-Nov-11 05:31N 49°28' E 000°09'4 7.2
2017-Nov-11 05:00N 49°29' E 000°04'714.0
2017-Nov-11 04:30N 49°31' W 000°07'510.0
2017-Nov-11 04:00N 49°33' W 000°14'510.0
2017-Nov-11 03:31N 49°35' W 000°21'510.9
2017-Nov-11 03:01N 49°39' W 000°26'510.6
2017-Nov-11 02:30N 49°44' W 000°31'714.8
2017-Nov-11 02:00N 49°50' W 000°37'816.8
2017-Nov-11 01:30N 49°57' W 000°42'815.9
2017-Nov-11 01:00N 50°05' W 000°43'815.9
2017-Nov-11 00:30N 50°13' W 000°42'1514.2
2017-Nov-10 23:27N 50°24' W 000°25'815.9
2017-Nov-10 22:58N 50°27' W 000°14'815.8
2017-Nov-10 22:30N 50°28' W 000°03'816.3
2017-Nov-10 22:00N 50°30' E 000°09'816.6
2017-Nov-10 21:30N 50°33' E 000°22'816.8
2017-Nov-10 21:00N 50°35' E 000°35'917.1
2017-Nov-10 20:30N 50°40' E 000°46'816.9
2017-Nov-10 20:00N 50°44' E 000°57'816.8
2017-Nov-10 19:30N 50°49' E 001°08'1016.8
2017-Nov-10 18:56N 50°56' E 001°19'717.0
2017-Nov-10 18:30N 51°01' E 001°27'816.0
2017-Nov-10 18:00N 51°07' E 001°36'815.7
2017-Nov-10 17:30N 51°12' E 001°45'816.1
2017-Nov-10 17:00N 51°19' E 001°51'815.4
2017-Nov-10 16:30N 51°25' E 002°00'816.1
2017-Nov-10 16:00N 51°21' E 002°12'815.3
2017-Nov-10 15:30N 51°21' E 002°24'815.9
2017-Nov-10 14:59N 51°23' E 002°37'611.9
2017-Nov-10 14:30N 51°24' E 002°46'612.7
2017-Nov-10 14:00N 51°25' E 002°56'816.4
2017-Nov-10 13:30N 51°24' E 003°09'816.5
2017-Nov-10 13:00N 51°25' E 003°22'815.5
2017-Nov-10 12:30N 51°26' E 003°35'4 7.4
2017-Nov-10 12:00N 51°27' E 003°40'815.0
2017-Nov-10 11:30N 51°21' E 003°48'612.7
2017-Nov-10 11:00N 51°24' E 003°57'3 6.3
2017-Nov-10 10:31N 51°23' E 004°02'612.9
2017-Nov-10 10:01N 51°24' E 004°13'4 8.2
2017-Nov-10 09:31N 51°21' E 004°17'0 0.0
2017-Nov-10 09:01N 51°21' E 004°17'0 0.0
2017-Nov-10 08:31N 51°21' E 004°17'1 1.4
2017-Nov-10 08:00N 51°20' E 004°18'2 3.0
2017-Nov-10 07:30N 51°20' E 004°20'0 0.2
2017-Nov-10 06:59N 51°20' E 004°20'0 0.0
2017-Nov-10 06:29N 51°20' E 004°20'0 0.0
2017-Nov-10 05:59N 51°20' E 004°20'0 0.0
2017-Nov-10 05:29N 51°20' E 004°20'0 0.0
2017-Nov-10 04:59N 51°20' E 004°20'0 0.0
2017-Nov-10 04:29N 51°20' E 004°20'0 0.0
2017-Nov-10 03:56N 51°20' E 004°20'0 0.0
2017-Nov-10 03:29N 51°20' E 004°20'0 0.0
2017-Nov-10 02:59N 51°20' E 004°20'0 0.0
2017-Nov-10 02:29N 51°20' E 004°20'0 0.0
2017-Nov-10 01:59N 51°20' E 004°20'0 0.0
2017-Nov-10 01:29N 51°20' E 004°20'0 0.0
2017-Nov-10 00:59N 51°20' E 004°20'0 0.0
2017-Nov-10 00:29N 51°20' E 004°20'0 0.0
2017-Nov-09 23:59N 51°20' E 004°20'0 0.0
2017-Nov-09 23:29N 51°20' E 004°20'0 0.0
2017-Nov-09 22:59N 51°20' E 004°20'0 0.0
2017-Nov-09 22:29N 51°20' E 004°20'0 0.0
2017-Nov-09 21:53N 51°20' E 004°20'0 0.0
2017-Nov-09 21:29N 51°20' E 004°20'0 0.0
2017-Nov-09 20:59N 51°20' E 004°20'0 0.0
2017-Nov-09 20:29N 51°20' E 004°20'0 0.0
2017-Nov-09 19:59N 51°20' E 004°20'0 0.0
2017-Nov-09 19:29N 51°20' E 004°20'0 0.0
2017-Nov-09 18:56N 51°20' E 004°20'0 0.0
2017-Nov-09 18:23N 51°20' E 004°20'0 0.0
2017-Nov-09 17:59N 51°20' E 004°20'0 0.0
2017-Nov-09 17:29N 51°20' E 004°20'  

Dump ship's entire track history